sensor_id;sensor_type;location;lat;lon;timestamp;P1;durP1;ratioP1;P2;durP2;ratioP2
59649;SDS011;46162;57.568;25.814;2022-10-29T00:01:10;61.08;;;27.00;;
59649;SDS011;46162;57.568;25.814;2022-10-29T00:03:39;52.22;;;26.38;;
59649;SDS011;46162;57.568;25.814;2022-10-29T00:06:10;54.10;;;25.23;;
59649;SDS011;46162;57.568;25.814;2022-10-29T00:08:39;61.05;;;25.65;;
59649;SDS011;46162;57.568;25.814;2022-10-29T00:11:11;60.65;;;25.05;;
59649;SDS011;46162;57.568;25.814;2022-10-29T00:13:41;56.30;;;26.10;;
59649;SDS011;46162;57.568;25.814;2022-10-29T00:16:11;60.63;;;26.10;;
59649;SDS011;46162;57.568;25.814;2022-10-29T00:18:41;49.90;;;23.63;;
59649;SDS011;46162;57.568;25.814;2022-10-29T00:21:12;48.03;;;24.02;;
59649;SDS011;46162;57.568;25.814;2022-10-29T00:23:42;45.67;;;22.60;;
59649;SDS011;46162;57.568;25.814;2022-10-29T00:26:11;45.35;;;23.10;;
59649;SDS011;46162;57.568;25.814;2022-10-29T00:28:40;49.58;;;22.10;;
59649;SDS011;46162;57.568;25.814;2022-10-29T00:31:11;50.00;;;23.45;;
59649;SDS011;46162;57.568;25.814;2022-10-29T00:33:41;48.08;;;23.20;;
59649;SDS011;46162;57.568;25.814;2022-10-29T00:36:10;43.35;;;22.27;;
59649;SDS011;46162;57.568;25.814;2022-10-29T00:38:42;44.08;;;21.60;;
59649;SDS011;46162;57.568;25.814;2022-10-29T00:41:12;44.25;;;20.90;;
59649;SDS011;46162;57.568;25.814;2022-10-29T00:43:44;44.38;;;19.42;;
59649;SDS011;46162;57.568;25.814;2022-10-29T00:46:15;37.58;;;18.50;;
59649;SDS011;46162;57.568;25.814;2022-10-29T00:48:49;39.38;;;18.13;;
59649;SDS011;46162;57.568;25.814;2022-10-29T00:51:21;33.45;;;16.83;;
59649;SDS011;46162;57.568;25.814;2022-10-29T00:53:51;37.67;;;17.02;;
59649;SDS011;46162;57.568;25.814;2022-10-29T00:56:23;40.03;;;18.08;;
59649;SDS011;46162;57.568;25.814;2022-10-29T00:58:54;31.92;;;15.30;;
59649;SDS011;46162;57.568;25.814;2022-10-29T01:01:23;27.13;;;14.73;;
59649;SDS011;46162;57.568;25.814;2022-10-29T01:03:51;32.15;;;14.57;;
59649;SDS011;46162;57.568;25.814;2022-10-29T01:06:23;29.67;;;13.38;;
59649;SDS011;46162;57.568;25.814;2022-10-29T01:08:52;24.75;;;13.38;;
59649;SDS011;46162;57.568;25.814;2022-10-29T01:11:22;28.55;;;12.75;;
59649;SDS011;46162;57.568;25.814;2022-10-29T01:13:59;27.17;;;13.48;;
59649;SDS011;46162;57.568;25.814;2022-10-29T01:16:39;26.63;;;13.52;;
59649;SDS011;46162;57.568;25.814;2022-10-29T01:19:14;22.65;;;11.90;;
59649;SDS011;46162;57.568;25.814;2022-10-29T01:22:03;23.00;;;11.23;;
59649;SDS011;46162;57.568;25.814;2022-10-29T01:24:44;21.15;;;10.52;;
59649;SDS011;46162;57.568;25.814;2022-10-29T01:27:38;23.17;;;10.85;;
59649;SDS011;46162;57.568;25.814;2022-10-29T01:30:34;21.10;;;9.88;;
59649;SDS011;46162;57.568;25.814;2022-10-29T01:33:18;22.40;;;9.93;;
59649;SDS011;46162;57.568;25.814;2022-10-29T01:35:51;20.98;;;9.68;;
59649;SDS011;46162;57.568;25.814;2022-10-29T01:38:32;22.10;;;10.45;;
59649;SDS011;46162;57.568;25.814;2022-10-29T01:41:06;26.42;;;11.75;;
59649;SDS011;46162;57.568;25.814;2022-10-29T01:43:42;26.13;;;11.80;;
59649;SDS011;46162;57.568;25.814;2022-10-29T01:46:16;27.58;;;12.13;;
59649;SDS011;46162;57.568;25.814;2022-10-29T01:48:50;24.75;;;11.60;;
59649;SDS011;46162;57.568;25.814;2022-10-29T01:51:22;26.67;;;11.00;;
59649;SDS011;46162;57.568;25.814;2022-10-29T01:53:53;19.98;;;11.15;;
59649;SDS011;46162;57.568;25.814;2022-10-29T01:58:53;25.98;;;10.95;;
59649;SDS011;46162;57.568;25.814;2022-10-29T02:04:27;29.45;;;12.65;;
59649;SDS011;46162;57.568;25.814;2022-10-29T02:07:10;30.55;;;12.80;;
59649;SDS011;46162;57.568;25.814;2022-10-29T02:09:46;36.15;;;14.07;;
59649;SDS011;46162;57.568;25.814;2022-10-29T02:12:22;32.08;;;14.18;;
59649;SDS011;46162;57.568;25.814;2022-10-29T02:14:55;36.08;;;14.35;;
59649;SDS011;46162;57.568;25.814;2022-10-29T02:17:30;34.00;;;14.98;;
59649;SDS011;46162;57.568;25.814;2022-10-29T02:20:02;31.20;;;14.23;;
59649;SDS011;46162;57.568;25.814;2022-10-29T02:22:31;37.15;;;14.00;;
59649;SDS011;46162;57.568;25.814;2022-10-29T02:25:00;28.98;;;12.60;;
59649;SDS011;46162;57.568;25.814;2022-10-29T02:27:30;33.60;;;13.27;;
59649;SDS011;46162;57.568;25.814;2022-10-29T02:29:59;29.02;;;13.18;;
59649;SDS011;46162;57.568;25.814;2022-10-29T02:32:27;30.92;;;13.65;;
59649;SDS011;46162;57.568;25.814;2022-10-29T02:35:16;34.17;;;14.02;;
59649;SDS011;46162;57.568;25.814;2022-10-29T02:37:48;36.38;;;15.30;;
59649;SDS011;46162;57.568;25.814;2022-10-29T02:40:17;45.47;;;17.95;;
59649;SDS011;46162;57.568;25.814;2022-10-29T02:42:45;50.13;;;18.88;;
59649;SDS011;46162;57.568;25.814;2022-10-29T02:45:14;63.40;;;21.38;;
59649;SDS011;46162;57.568;25.814;2022-10-29T02:47:43;75.97;;;23.95;;
59649;SDS011;46162;57.568;25.814;2022-10-29T02:50:13;89.85;;;27.48;;
59649;SDS011;46162;57.568;25.814;2022-10-29T02:52:42;111.65;;;29.65;;
59649;SDS011;46162;57.568;25.814;2022-10-29T02:55:10;117.05;;;31.25;;
59649;SDS011;46162;57.568;25.814;2022-10-29T02:57:41;134.30;;;32.33;;
59649;SDS011;46162;57.568;25.814;2022-10-29T03:00:10;148.07;;;36.28;;
59649;SDS011;46162;57.568;25.814;2022-10-29T03:02:40;166.70;;;37.78;;
59649;SDS011;46162;57.568;25.814;2022-10-29T03:05:09;150.40;;;36.67;;
59649;SDS011;46162;57.568;25.814;2022-10-29T03:07:39;163.35;;;37.92;;
59649;SDS011;46162;57.568;25.814;2022-10-29T03:10:08;180.37;;;39.50;;
59649;SDS011;46162;57.568;25.814;2022-10-29T03:12:37;182.63;;;37.92;;
59649;SDS011;46162;57.568;25.814;2022-10-29T03:15:06;167.27;;;37.78;;
59649;SDS011;46162;57.568;25.814;2022-10-29T03:17:35;170.73;;;37.60;;
59649;SDS011;46162;57.568;25.814;2022-10-29T03:20:06;187.73;;;39.20;;
59649;SDS011;46162;57.568;25.814;2022-10-29T03:22:39;202.70;;;39.53;;
59649;SDS011;46162;57.568;25.814;2022-10-29T03:25:08;193.40;;;40.33;;
59649;SDS011;46162;57.568;25.814;2022-10-29T03:27:41;235.68;;;41.20;;
59649;SDS011;46162;57.568;25.814;2022-10-29T03:30:11;229.52;;;42.03;;
59649;SDS011;46162;57.568;25.814;2022-10-29T03:32:42;232.32;;;40.05;;
59649;SDS011;46162;57.568;25.814;2022-10-29T03:35:13;262.88;;;45.35;;
59649;SDS011;46162;57.568;25.814;2022-10-29T03:37:44;281.10;;;49.28;;
59649;SDS011;46162;57.568;25.814;2022-10-29T03:40:19;279.88;;;48.33;;
59649;SDS011;46162;57.568;25.814;2022-10-29T03:42:50;324.15;;;49.30;;
59649;SDS011;46162;57.568;25.814;2022-10-29T03:45:19;301.10;;;48.13;;
59649;SDS011;46162;57.568;25.814;2022-10-29T03:47:48;315.20;;;50.58;;
59649;SDS011;46162;57.568;25.814;2022-10-29T03:50:17;327.40;;;51.15;;
59649;SDS011;46162;57.568;25.814;2022-10-29T03:52:48;306.55;;;52.38;;
59649;SDS011;46162;57.568;25.814;2022-10-29T03:55:16;297.33;;;50.92;;
59649;SDS011;46162;57.568;25.814;2022-10-29T03:57:45;292.90;;;49.28;;
59649;SDS011;46162;57.568;25.814;2022-10-29T04:00:14;276.38;;;51.17;;
59649;SDS011;46162;57.568;25.814;2022-10-29T04:02:44;278.90;;;51.42;;
59649;SDS011;46162;57.568;25.814;2022-10-29T04:05:13;293.45;;;49.30;;
59649;SDS011;46162;57.568;25.814;2022-10-29T04:07:42;265.52;;;51.45;;
59649;SDS011;46162;57.568;25.814;2022-10-29T04:10:12;247.40;;;48.17;;
59649;SDS011;46162;57.568;25.814;2022-10-29T04:12:43;236.63;;;48.70;;
59649;SDS011;46162;57.568;25.814;2022-10-29T04:15:12;233.52;;;46.53;;
59649;SDS011;46162;57.568;25.814;2022-10-29T04:17:42;228.43;;;46.90;;
59649;SDS011;46162;57.568;25.814;2022-10-29T04:20:11;234.65;;;47.50;;
59649;SDS011;46162;57.568;25.814;2022-10-29T04:23:00;222.15;;;45.63;;
59649;SDS011;46162;57.568;25.814;2022-10-29T04:25:57;218.40;;;45.28;;
59649;SDS011;46162;57.568;25.814;2022-10-29T04:28:48;186.55;;;42.25;;
59649;SDS011;46162;57.568;25.814;2022-10-29T04:31:17;195.65;;;43.30;;
59649;SDS011;46162;57.568;25.814;2022-10-29T04:33:46;183.68;;;43.85;;
59649;SDS011;46162;57.568;25.814;2022-10-29T04:36:15;173.60;;;41.90;;
59649;SDS011;46162;57.568;25.814;2022-10-29T04:38:44;173.45;;;41.47;;
59649;SDS011;46162;57.568;25.814;2022-10-29T04:41:14;153.50;;;40.70;;
59649;SDS011;46162;57.568;25.814;2022-10-29T04:43:43;152.18;;;39.30;;
59649;SDS011;46162;57.568;25.814;2022-10-29T04:46:11;148.13;;;41.67;;
59649;SDS011;46162;57.568;25.814;2022-10-29T04:48:40;140.05;;;39.70;;
59649;SDS011;46162;57.568;25.814;2022-10-29T04:51:14;143.68;;;40.00;;
59649;SDS011;46162;57.568;25.814;2022-10-29T04:53:46;144.32;;;38.78;;
59649;SDS011;46162;57.568;25.814;2022-10-29T04:56:16;134.82;;;38.83;;
59649;SDS011;46162;57.568;25.814;2022-10-29T04:58:48;132.52;;;38.28;;
59649;SDS011;46162;57.568;25.814;2022-10-29T05:01:18;126.65;;;36.97;;
59649;SDS011;46162;57.568;25.814;2022-10-29T05:03:47;127.80;;;38.70;;
59649;SDS011;46162;57.568;25.814;2022-10-29T05:06:18;124.45;;;37.75;;
59649;SDS011;46162;57.568;25.814;2022-10-29T05:08:47;115.80;;;34.45;;
59649;SDS011;46162;57.568;25.814;2022-10-29T05:11:17;114.38;;;36.15;;
59649;SDS011;46162;57.568;25.814;2022-10-29T05:13:46;102.30;;;36.78;;
59649;SDS011;46162;57.568;25.814;2022-10-29T05:16:15;109.75;;;36.00;;
59649;SDS011;46162;57.568;25.814;2022-10-29T05:18:44;111.65;;;34.35;;
59649;SDS011;46162;57.568;25.814;2022-10-29T05:21:12;104.50;;;33.58;;
59649;SDS011;46162;57.568;25.814;2022-10-29T05:23:41;100.95;;;33.55;;
59649;SDS011;46162;57.568;25.814;2022-10-29T05:26:10;90.43;;;33.17;;
59649;SDS011;46162;57.568;25.814;2022-10-29T05:28:41;91.00;;;32.45;;
59649;SDS011;46162;57.568;25.814;2022-10-29T05:33:38;86.05;;;30.55;;
59649;SDS011;46162;57.568;25.814;2022-10-29T05:36:07;93.07;;;33.35;;
59649;SDS011;46162;57.568;25.814;2022-10-29T05:38:36;85.63;;;32.28;;
59649;SDS011;46162;57.568;25.814;2022-10-29T05:41:04;91.30;;;32.33;;
59649;SDS011;46162;57.568;25.814;2022-10-29T05:43:33;86.85;;;32.08;;
59649;SDS011;46162;57.568;25.814;2022-10-29T05:46:03;92.20;;;33.80;;
59649;SDS011;46162;57.568;25.814;2022-10-29T05:48:32;88.78;;;36.15;;
59649;SDS011;46162;57.568;25.814;2022-10-29T05:51:02;93.53;;;35.55;;
59649;SDS011;46162;57.568;25.814;2022-10-29T05:53:31;93.13;;;36.08;;
59649;SDS011;46162;57.568;25.814;2022-10-29T05:56:00;87.22;;;35.92;;
59649;SDS011;46162;57.568;25.814;2022-10-29T05:58:28;83.15;;;35.55;;
59649;SDS011;46162;57.568;25.814;2022-10-29T06:00:57;98.10;;;36.58;;
59649;SDS011;46162;57.568;25.814;2022-10-29T06:03:28;83.95;;;34.70;;
59649;SDS011;46162;57.568;25.814;2022-10-29T06:05:57;77.63;;;33.20;;
59649;SDS011;46162;57.568;25.814;2022-10-29T06:08:26;76.93;;;33.60;;
59649;SDS011;46162;57.568;25.814;2022-10-29T06:10:55;67.38;;;30.90;;
59649;SDS011;46162;57.568;25.814;2022-10-29T06:13:23;65.28;;;32.03;;
59649;SDS011;46162;57.568;25.814;2022-10-29T06:15:54;60.30;;;28.83;;
59649;SDS011;46162;57.568;25.814;2022-10-29T06:18:24;59.55;;;28.27;;
59649;SDS011;46162;57.568;25.814;2022-10-29T06:20:55;51.83;;;27.08;;
59649;SDS011;46162;57.568;25.814;2022-10-29T06:23:25;45.85;;;25.90;;
59649;SDS011;46162;57.568;25.814;2022-10-29T06:25:54;55.30;;;26.92;;
59649;SDS011;46162;57.568;25.814;2022-10-29T06:28:25;55.35;;;27.50;;
59649;SDS011;46162;57.568;25.814;2022-10-29T06:31:00;46.30;;;25.63;;
59649;SDS011;46162;57.568;25.814;2022-10-29T06:33:29;50.60;;;26.40;;
59649;SDS011;46162;57.568;25.814;2022-10-29T06:36:00;58.33;;;27.80;;
59649;SDS011;46162;57.568;25.814;2022-10-29T06:38:29;49.22;;;26.48;;
59649;SDS011;46162;57.568;25.814;2022-10-29T06:40:57;49.60;;;26.42;;
59649;SDS011;46162;57.568;25.814;2022-10-29T06:43:26;46.67;;;25.55;;
59649;SDS011;46162;57.568;25.814;2022-10-29T06:45:55;46.55;;;24.52;;
59649;SDS011;46162;57.568;25.814;2022-10-29T06:48:24;42.83;;;23.80;;
59649;SDS011;46162;57.568;25.814;2022-10-29T06:50:52;41.47;;;24.48;;
59649;SDS011;46162;57.568;25.814;2022-10-29T06:53:22;46.00;;;24.08;;
59649;SDS011;46162;57.568;25.814;2022-10-29T06:55:51;42.30;;;22.15;;
59649;SDS011;46162;57.568;25.814;2022-10-29T06:58:21;36.58;;;22.20;;
59649;SDS011;46162;57.568;25.814;2022-10-29T07:00:50;37.85;;;22.40;;
59649;SDS011;46162;57.568;25.814;2022-10-29T07:03:20;35.47;;;21.88;;
59649;SDS011;46162;57.568;25.814;2022-10-29T07:05:53;36.00;;;20.17;;
59649;SDS011;46162;57.568;25.814;2022-10-29T07:08:24;34.03;;;20.80;;
59649;SDS011;46162;57.568;25.814;2022-10-29T07:10:54;34.78;;;20.88;;
59649;SDS011;46162;57.568;25.814;2022-10-29T07:13:23;36.35;;;20.73;;
59649;SDS011;46162;57.568;25.814;2022-10-29T07:15:52;36.30;;;20.38;;
59649;SDS011;46162;57.568;25.814;2022-10-29T07:18:20;38.88;;;20.80;;
59649;SDS011;46162;57.568;25.814;2022-10-29T07:20:49;36.90;;;21.15;;
59649;SDS011;46162;57.568;25.814;2022-10-29T07:23:18;34.30;;;21.48;;
59649;SDS011;46162;57.568;25.814;2022-10-29T07:25:50;35.85;;;20.42;;
59649;SDS011;46162;57.568;25.814;2022-10-29T07:28:20;35.63;;;20.80;;
59649;SDS011;46162;57.568;25.814;2022-10-29T07:30:51;34.97;;;19.27;;
59649;SDS011;46162;57.568;25.814;2022-10-29T07:33:26;33.92;;;19.60;;
59649;SDS011;46162;57.568;25.814;2022-10-29T07:35:56;34.00;;;19.33;;
59649;SDS011;46162;57.568;25.814;2022-10-29T07:38:26;32.05;;;19.42;;
59649;SDS011;46162;57.568;25.814;2022-10-29T07:40:57;30.92;;;18.67;;
59649;SDS011;46162;57.568;25.814;2022-10-29T07:43:26;31.33;;;17.52;;
59649;SDS011;46162;57.568;25.814;2022-10-29T07:45:55;30.30;;;16.90;;
59649;SDS011;46162;57.568;25.814;2022-10-29T07:48:23;26.00;;;16.98;;
59649;SDS011;46162;57.568;25.814;2022-10-29T07:50:52;28.35;;;16.60;;
59649;SDS011;46162;57.568;25.814;2022-10-29T07:53:21;36.47;;;18.15;;
59649;SDS011;46162;57.568;25.814;2022-10-29T07:55:52;30.65;;;17.50;;
59649;SDS011;46162;57.568;25.814;2022-10-29T07:58:25;32.80;;;17.73;;
59649;SDS011;46162;57.568;25.814;2022-10-29T08:00:54;32.10;;;17.67;;
59649;SDS011;46162;57.568;25.814;2022-10-29T08:03:26;28.25;;;16.50;;
59649;SDS011;46162;57.568;25.814;2022-10-29T08:05:55;27.60;;;16.90;;
59649;SDS011;46162;57.568;25.814;2022-10-29T08:08:24;30.17;;;16.55;;
59649;SDS011;46162;57.568;25.814;2022-10-29T08:10:57;30.88;;;16.70;;
59649;SDS011;46162;57.568;25.814;2022-10-29T08:13:28;30.20;;;16.10;;
59649;SDS011;46162;57.568;25.814;2022-10-29T08:15:58;29.40;;;16.73;;
59649;SDS011;46162;57.568;25.814;2022-10-29T08:18:27;30.98;;;15.13;;
59649;SDS011;46162;57.568;25.814;2022-10-29T08:20:56;27.33;;;15.57;;
59649;SDS011;46162;57.568;25.814;2022-10-29T08:23:25;29.40;;;16.48;;
59649;SDS011;46162;57.568;25.814;2022-10-29T08:25:56;27.70;;;16.45;;
59649;SDS011;46162;57.568;25.814;2022-10-29T08:28:28;31.95;;;17.83;;
59649;SDS011;46162;57.568;25.814;2022-10-29T08:31:01;32.75;;;17.83;;
59649;SDS011;46162;57.568;25.814;2022-10-29T08:33:30;32.95;;;18.13;;
59649;SDS011;46162;57.568;25.814;2022-10-29T08:36:00;33.72;;;16.75;;
59649;SDS011;46162;57.568;25.814;2022-10-29T08:38:29;33.03;;;16.93;;
59649;SDS011;46162;57.568;25.814;2022-10-29T08:41:04;32.40;;;17.30;;
59649;SDS011;46162;57.568;25.814;2022-10-29T08:44:01;53.10;;;19.45;;
59649;SDS011;46162;57.568;25.814;2022-10-29T08:46:53;38.05;;;16.88;;
59649;SDS011;46162;57.568;25.814;2022-10-29T08:49:29;34.75;;;17.35;;
59649;SDS011;46162;57.568;25.814;2022-10-29T08:52:03;37.15;;;16.75;;
59649;SDS011;46162;57.568;25.814;2022-10-29T08:54:35;30.80;;;16.77;;
59649;SDS011;46162;57.568;25.814;2022-10-29T08:57:10;28.27;;;15.60;;
59649;SDS011;46162;57.568;25.814;2022-10-29T08:59:45;32.50;;;16.38;;
59649;SDS011;46162;57.568;25.814;2022-10-29T09:02:23;25.65;;;15.57;;
59649;SDS011;46162;57.568;25.814;2022-10-29T09:04:53;31.23;;;15.00;;
59649;SDS011;46162;57.568;25.814;2022-10-29T09:07:26;26.80;;;14.15;;
59649;SDS011;46162;57.568;25.814;2022-10-29T09:10:07;20.63;;;12.63;;
59649;SDS011;46162;57.568;25.814;2022-10-29T09:12:51;24.33;;;12.85;;
59649;SDS011;46162;57.568;25.814;2022-10-29T09:15:38;23.00;;;12.60;;
59649;SDS011;46162;57.568;25.814;2022-10-29T09:18:36;20.45;;;11.25;;
59649;SDS011;46162;57.568;25.814;2022-10-29T09:24:03;19.05;;;10.27;;
59649;SDS011;46162;57.568;25.814;2022-10-29T09:29:20;17.80;;;9.93;;
59649;SDS011;46162;57.568;25.814;2022-10-29T09:32:00;19.15;;;10.95;;
59649;SDS011;46162;57.568;25.814;2022-10-29T09:34:33;29.95;;;17.70;;
59649;SDS011;46162;57.568;25.814;2022-10-29T09:37:10;20.15;;;11.02;;
59649;SDS011;46162;57.568;25.814;2022-10-29T09:39:43;25.48;;;11.98;;
59649;SDS011;46162;57.568;25.814;2022-10-29T09:42:14;15.75;;;8.75;;
59649;SDS011;46162;57.568;25.814;2022-10-29T09:44:47;14.98;;;10.35;;
59649;SDS011;46162;57.568;25.814;2022-10-29T09:47:23;13.07;;;8.50;;
59649;SDS011;46162;57.568;25.814;2022-10-29T09:50:02;12.80;;;7.97;;
59649;SDS011;46162;57.568;25.814;2022-10-29T09:52:38;14.48;;;7.90;;
59649;SDS011;46162;57.568;25.814;2022-10-29T09:55:10;11.40;;;7.28;;
59649;SDS011;46162;57.568;25.814;2022-10-29T09:57:46;11.45;;;6.85;;
59649;SDS011;46162;57.568;25.814;2022-10-29T10:00:17;13.73;;;7.97;;
59649;SDS011;46162;57.568;25.814;2022-10-29T10:02:53;17.85;;;8.07;;
59649;SDS011;46162;57.568;25.814;2022-10-29T10:05:28;11.20;;;7.93;;
59649;SDS011;46162;57.568;25.814;2022-10-29T10:08:11;12.63;;;7.45;;
59649;SDS011;46162;57.568;25.814;2022-10-29T10:10:48;16.13;;;9.48;;
59649;SDS011;46162;57.568;25.814;2022-10-29T10:13:19;17.13;;;11.15;;
59649;SDS011;46162;57.568;25.814;2022-10-29T10:15:53;19.98;;;10.88;;
59649;SDS011;46162;57.568;25.814;2022-10-29T10:18:26;19.55;;;11.57;;
59649;SDS011;46162;57.568;25.814;2022-10-29T10:21:06;18.73;;;10.25;;
59649;SDS011;46162;57.568;25.814;2022-10-29T10:23:40;22.23;;;11.70;;
59649;SDS011;46162;57.568;25.814;2022-10-29T10:29:03;18.25;;;11.38;;
59649;SDS011;46162;57.568;25.814;2022-10-29T10:31:36;20.15;;;12.07;;
59649;SDS011;46162;57.568;25.814;2022-10-29T10:34:14;17.83;;;11.90;;
59649;SDS011;46162;57.568;25.814;2022-10-29T10:36:45;21.70;;;12.15;;
59649;SDS011;46162;57.568;25.814;2022-10-29T10:39:24;18.50;;;11.38;;
59649;SDS011;46162;57.568;25.814;2022-10-29T10:41:56;15.52;;;10.57;;
59649;SDS011;46162;57.568;25.814;2022-10-29T10:44:27;17.77;;;10.65;;
59649;SDS011;46162;57.568;25.814;2022-10-29T10:46:57;18.92;;;11.35;;
59649;SDS011;46162;57.568;25.814;2022-10-29T10:49:34;20.77;;;11.32;;
59649;SDS011;46162;57.568;25.814;2022-10-29T10:52:05;26.10;;;12.98;;
59649;SDS011;46162;57.568;25.814;2022-10-29T10:54:44;22.08;;;14.23;;
59649;SDS011;46162;57.568;25.814;2022-10-29T10:57:17;23.75;;;12.98;;
59649;SDS011;46162;57.568;25.814;2022-10-29T10:59:52;27.27;;;15.82;;
59649;SDS011;46162;57.568;25.814;2022-10-29T11:02:28;32.92;;;16.00;;
59649;SDS011;46162;57.568;25.814;2022-10-29T11:05:08;29.35;;;16.00;;
59649;SDS011;46162;57.568;25.814;2022-10-29T11:07:44;25.42;;;14.57;;
59649;SDS011;46162;57.568;25.814;2022-10-29T11:10:19;25.48;;;15.57;;
59649;SDS011;46162;57.568;25.814;2022-10-29T11:13:00;34.70;;;17.98;;
59649;SDS011;46162;57.568;25.814;2022-10-29T11:15:36;40.97;;;19.60;;
59649;SDS011;46162;57.568;25.814;2022-10-29T11:18:11;41.28;;;21.98;;
59649;SDS011;46162;57.568;25.814;2022-10-29T11:20:48;35.83;;;21.17;;
59649;SDS011;46162;57.568;25.814;2022-10-29T11:23:24;48.33;;;23.50;;
59649;SDS011;46162;57.568;25.814;2022-10-29T11:25:59;50.40;;;25.45;;
59649;SDS011;46162;57.568;25.814;2022-10-29T11:28:37;53.17;;;26.42;;
59649;SDS011;46162;57.568;25.814;2022-10-29T11:31:13;52.80;;;28.08;;
59649;SDS011;46162;57.568;25.814;2022-10-29T11:33:53;54.92;;;29.70;;
59649;SDS011;46162;57.568;25.814;2022-10-29T11:36:30;55.92;;;29.63;;
59649;SDS011;46162;57.568;25.814;2022-10-29T11:39:09;54.80;;;32.30;;
59649;SDS011;46162;57.568;25.814;2022-10-29T11:41:43;64.63;;;31.08;;
59649;SDS011;46162;57.568;25.814;2022-10-29T11:44:17;61.53;;;31.70;;
59649;SDS011;46162;57.568;25.814;2022-10-29T11:47:00;63.88;;;32.97;;
59649;SDS011;46162;57.568;25.814;2022-10-29T11:49:39;57.33;;;32.92;;
59649;SDS011;46162;57.568;25.814;2022-10-29T11:52:27;63.33;;;32.22;;
59649;SDS011;46162;57.568;25.814;2022-10-29T11:55:04;66.13;;;33.75;;
59649;SDS011;46162;57.568;25.814;2022-10-29T11:57:46;62.92;;;33.53;;
59649;SDS011;46162;57.568;25.814;2022-10-29T12:00:20;59.13;;;31.90;;
59649;SDS011;46162;57.568;25.814;2022-10-29T12:05:49;60.17;;;33.72;;
59649;SDS011;46162;57.568;25.814;2022-10-29T12:08:30;65.55;;;34.10;;
59649;SDS011;46162;57.568;25.814;2022-10-29T12:11:12;59.75;;;34.65;;
59649;SDS011;46162;57.568;25.814;2022-10-29T12:13:52;60.38;;;33.85;;
59649;SDS011;46162;57.568;25.814;2022-10-29T12:16:30;63.53;;;34.03;;
59649;SDS011;46162;57.568;25.814;2022-10-29T12:19:13;57.28;;;31.83;;
59649;SDS011;46162;57.568;25.814;2022-10-29T12:21:49;62.97;;;33.65;;
59649;SDS011;46162;57.568;25.814;2022-10-29T12:24:32;49.28;;;28.63;;
59649;SDS011;46162;57.568;25.814;2022-10-29T12:27:16;48.92;;;27.88;;
59649;SDS011;46162;57.568;25.814;2022-10-29T12:29:51;46.08;;;25.10;;
59649;SDS011;46162;57.568;25.814;2022-10-29T12:32:28;42.85;;;26.35;;
59649;SDS011;46162;57.568;25.814;2022-10-29T12:35:01;47.22;;;23.77;;
59649;SDS011;46162;57.568;25.814;2022-10-29T12:37:39;43.85;;;24.40;;
59649;SDS011;46162;57.568;25.814;2022-10-29T12:40:14;38.28;;;23.10;;
59649;SDS011;46162;57.568;25.814;2022-10-29T12:42:47;36.10;;;22.92;;
59649;SDS011;46162;57.568;25.814;2022-10-29T12:45:21;42.22;;;22.98;;
59649;SDS011;46162;57.568;25.814;2022-10-29T12:47:59;34.50;;;21.27;;
59649;SDS011;46162;57.568;25.814;2022-10-29T12:50:41;31.52;;;20.52;;
59649;SDS011;46162;57.568;25.814;2022-10-29T12:53:22;39.88;;;21.42;;
59649;SDS011;46162;57.568;25.814;2022-10-29T12:55:58;34.38;;;21.40;;
59649;SDS011;46162;57.568;25.814;2022-10-29T12:58:45;34.70;;;20.55;;
59649;SDS011;46162;57.568;25.814;2022-10-29T13:04:34;28.70;;;18.50;;
59649;SDS011;46162;57.568;25.814;2022-10-29T13:07:08;33.45;;;18.98;;
59649;SDS011;46162;57.568;25.814;2022-10-29T13:10:02;28.55;;;18.55;;
59649;SDS011;46162;57.568;25.814;2022-10-29T13:13:19;34.55;;;18.20;;
59649;SDS011;46162;57.568;25.814;2022-10-29T13:16:06;24.60;;;15.75;;
59649;SDS011;46162;57.568;25.814;2022-10-29T13:18:53;25.73;;;15.57;;
59649;SDS011;46162;57.568;25.814;2022-10-29T13:27:53;23.33;;;12.02;;
59649;SDS011;46162;57.568;25.814;2022-10-29T13:30:25;19.08;;;11.73;;
59649;SDS011;46162;57.568;25.814;2022-10-29T13:32:55;23.05;;;11.02;;
59649;SDS011;46162;57.568;25.814;2022-10-29T13:35:37;20.00;;;8.25;;
59649;SDS011;46162;57.568;25.814;2022-10-29T13:38:10;17.67;;;8.05;;
59649;SDS011;46162;57.568;25.814;2022-10-29T13:43:35;15.00;;;6.70;;
59649;SDS011;46162;57.568;25.814;2022-10-29T13:49:14;13.45;;;6.60;;
59649;SDS011;46162;57.568;25.814;2022-10-29T13:51:58;11.02;;;5.50;;
59649;SDS011;46162;57.568;25.814;2022-10-29T13:54:33;15.40;;;6.32;;
59649;SDS011;46162;57.568;25.814;2022-10-29T13:57:07;14.93;;;6.50;;
59649;SDS011;46162;57.568;25.814;2022-10-29T13:59:44;18.60;;;5.43;;
59649;SDS011;46162;57.568;25.814;2022-10-29T14:02:24;13.35;;;4.50;;
59649;SDS011;46162;57.568;25.814;2022-10-29T14:04:59;15.65;;;4.13;;
59649;SDS011;46162;57.568;25.814;2022-10-29T14:07:34;14.02;;;2.72;;
59649;SDS011;46162;57.568;25.814;2022-10-29T14:10:22;14.60;;;2.70;;
59649;SDS011;46162;57.568;25.814;2022-10-29T14:12:54;8.18;;;1.88;;
59649;SDS011;46162;57.568;25.814;2022-10-29T14:15:27;16.58;;;2.25;;
59649;SDS011;46162;57.568;25.814;2022-10-29T14:17:56;12.43;;;2.35;;
59649;SDS011;46162;57.568;25.814;2022-10-29T14:20:27;11.00;;;1.77;;
59649;SDS011;46162;57.568;25.814;2022-10-29T14:22:56;16.13;;;2.60;;
59649;SDS011;46162;57.568;25.814;2022-10-29T14:25:34;12.07;;;1.65;;
59649;SDS011;46162;57.568;25.814;2022-10-29T14:28:16;14.15;;;1.52;;
59649;SDS011;46162;57.568;25.814;2022-10-29T14:30:58;16.63;;;1.83;;
59649;SDS011;46162;57.568;25.814;2022-10-29T14:33:29;13.13;;;1.52;;
59649;SDS011;46162;57.568;25.814;2022-10-29T14:36:06;14.32;;;1.83;;
59649;SDS011;46162;57.568;25.814;2022-10-29T14:38:40;8.85;;;1.20;;
59649;SDS011;46162;57.568;25.814;2022-10-29T14:41:13;14.55;;;1.50;;
59649;SDS011;46162;57.568;25.814;2022-10-29T14:43:42;15.23;;;1.92;;
59649;SDS011;46162;57.568;25.814;2022-10-29T14:46:21;22.60;;;2.08;;
59649;SDS011;46162;57.568;25.814;2022-10-29T14:49:02;12.70;;;1.23;;
59649;SDS011;46162;57.568;25.814;2022-10-29T14:51:45;16.63;;;1.38;;
59649;SDS011;46162;57.568;25.814;2022-10-29T14:54:18;12.80;;;0.85;;
59649;SDS011;46162;57.568;25.814;2022-10-29T14:56:51;18.48;;;1.42;;
59649;SDS011;46162;57.568;25.814;2022-10-29T14:59:23;13.10;;;1.13;;
59649;SDS011;46162;57.568;25.814;2022-10-29T15:01:55;21.33;;;1.33;;
59649;SDS011;46162;57.568;25.814;2022-10-29T15:07:26;14.82;;;0.82;;
59649;SDS011;46162;57.568;25.814;2022-10-29T15:10:02;15.27;;;1.20;;
59649;SDS011;46162;57.568;25.814;2022-10-29T15:12:46;19.15;;;1.40;;
59649;SDS011;46162;57.568;25.814;2022-10-29T15:15:22;21.13;;;1.50;;
59649;SDS011;46162;57.568;25.814;2022-10-29T15:17:55;17.50;;;2.17;;
59649;SDS011;46162;57.568;25.814;2022-10-29T15:20:28;17.75;;;1.60;;
59649;SDS011;46162;57.568;25.814;2022-10-29T15:23:02;19.50;;;1.73;;